createdAt,value
2022-11-12T00:00:43.037Z,25.5
2022-11-12T00:01:44.722Z,25.2
2022-11-12T00:02:47.189Z,25.4
2022-11-12T00:03:49.664Z,25.4
2022-11-12T00:04:51.865Z,25.4
2022-11-12T00:05:54.822Z,25.3
2022-11-12T00:06:57.078Z,25.4
2022-11-12T00:07:59.855Z,25.5
2022-11-12T00:09:02.048Z,25.3
2022-11-12T00:10:04.359Z,25.5
2022-11-12T00:11:06.881Z,25.5
2022-11-12T00:12:09.086Z,25.3
2022-11-12T00:13:11.282Z,25.5
2022-11-12T00:14:13.185Z,25.6
2022-11-12T00:15:15.396Z,25.5
2022-11-12T00:16:17.856Z,25.5
2022-11-12T00:17:20.329Z,25.5
2022-11-12T00:18:22.903Z,25.5
2022-11-12T00:19:26.849Z,25.5
2022-11-12T00:20:29.039Z,25.5
2022-11-12T00:21:32.013Z,25.5
2022-11-12T00:22:34.488Z,25.5
2022-11-12T00:23:36.689Z,25.5
2022-11-12T00:24:38.888Z,25.5
2022-11-12T00:25:40.925Z,25.5
2022-11-12T00:26:43.131Z,25.4
2022-11-12T00:27:45.601Z,25.5
2022-11-12T00:28:47.796Z,25.5
2022-11-12T00:29:50.272Z,25.5
2022-11-12T00:30:51.897Z,25.5
2022-11-12T00:31:54.099Z,25.6
2022-11-12T00:32:56.296Z,25.5
2022-11-12T00:33:58.765Z,25.5
2022-11-12T00:35:02.692Z,25.6
2022-11-12T00:36:05.981Z,25.8
2022-11-12T00:37:08.910Z,25.7
2022-11-12T00:38:11.020Z,25.5
2022-11-12T00:39:13.207Z,25.7
2022-11-12T00:40:15.409Z,25.7
2022-11-12T00:41:17.438Z,25.8
2022-11-12T00:42:19.912Z,25.7
2022-11-12T00:43:21.540Z,25.7
2022-11-12T00:44:24.007Z,25.7
2022-11-12T00:45:26.756Z,25.8
2022-11-12T00:46:29.226Z,25.6
2022-11-12T00:47:31.413Z,25.7
2022-11-12T00:48:33.874Z,25.7
2022-11-12T00:49:36.351Z,25.8
2022-11-12T00:50:38.541Z,25.8
2022-11-12T00:51:40.739Z,25.9
2022-11-12T00:52:43.655Z,25.8
2022-11-12T00:53:45.858Z,25.7
2022-11-12T00:54:48.046Z,25.8
2022-11-12T00:55:49.953Z,25.7
2022-11-12T00:56:52.246Z,25.8
2022-11-12T00:57:54.727Z,25.8
2022-11-12T00:58:57.194Z,25.8
2022-11-12T00:59:59.683Z,25.7
2022-11-12T01:01:01.983Z,25.6
2022-11-12T01:02:04.656Z,25.7
2022-11-12T01:03:06.565Z,25.8
2022-11-12T01:04:08.493Z,25.6
2022-11-12T01:05:11.300Z,26
2022-11-12T01:06:14.465Z,25.7
2022-11-12T01:07:16.696Z,25.9
2022-11-12T01:08:19.898Z,25.8
2022-11-12T01:09:22.375Z,25.8
2022-11-12T01:10:24.864Z,25.9
2022-11-12T01:11:26.778Z,25.8
2022-11-12T01:12:29.364Z,25.6
2022-11-12T01:13:31.263Z,25.8
2022-11-12T01:14:33.473Z,25.8
2022-11-12T01:15:35.382Z,25.7
2022-11-12T01:16:37.588Z,25.8
2022-11-12T01:17:40.052Z,25.9
2022-11-12T01:18:42.248Z,25.8
2022-11-12T01:19:44.718Z,25.9
2022-11-12T01:20:46.957Z,25.9
2022-11-12T01:21:49.429Z,25.8
2022-11-12T01:22:51.357Z,25.8
2022-11-12T01:23:54.289Z,25.9
2022-11-12T01:24:56.478Z,26
2022-11-12T01:25:58.399Z,25.8
2022-11-12T01:27:00.872Z,25.9
2022-11-12T01:28:03.204Z,25.8
2022-11-12T01:29:05.667Z,25.8
2022-11-12T01:30:07.866Z,25.8
2022-11-12T01:31:09.522Z,25.9
2022-11-12T01:32:11.999Z,25.9
2022-11-12T01:33:14.465Z,25.9
2022-11-12T01:34:16.370Z,26.1
2022-11-12T01:35:18.562Z,25.9
2022-11-12T01:36:21.043Z,26
2022-11-12T01:37:23.227Z,26.1
2022-11-12T01:38:26.038Z,26.1
2022-11-12T01:39:30.618Z,26.1
2022-11-12T01:40:33.094Z,26.1
2022-11-12T01:41:35.003Z,25.9
2022-11-12T01:42:37.473Z,26
2022-11-12T01:43:39.241Z,26
2022-11-12T01:44:41.766Z,26.2
2022-11-12T01:45:43.936Z,26.1
2022-11-12T01:46:46.412Z,26.1
2022-11-12T01:47:48.877Z,26
2022-11-12T01:48:51.372Z,26
2022-11-12T01:49:56.932Z,26.1
2022-11-12T01:50:58.833Z,26.1
2022-11-12T01:52:01.024Z,26
2022-11-12T01:53:03.197Z,26.2
2022-11-12T01:54:05.396Z,25.9
2022-11-12T01:55:08.345Z,26.1
2022-11-12T01:56:10.804Z,26
2022-11-12T01:57:12.997Z,26
2022-11-12T01:58:15.167Z,26
2022-11-12T01:59:17.219Z,26.3
2022-11-12T02:00:19.417Z,26.1
2022-11-12T02:01:21.690Z,26.3
2022-11-12T02:02:24.212Z,26
2022-11-12T02:03:26.130Z,26.1
2022-11-12T02:04:28.655Z,26.1
2022-11-12T02:05:31.127Z,26.2
2022-11-12T02:06:33.688Z,26.3
2022-11-12T02:07:36.217Z,26.1
2022-11-12T02:08:38.113Z,26
2022-11-12T02:09:40.054Z,26.2
2022-11-12T02:10:42.995Z,26.3
2022-11-12T02:11:45.471Z,26.2
2022-11-12T02:12:47.939Z,26.3
2022-11-12T02:13:50.428Z,26.1
2022-11-12T02:14:52.740Z,26.1
2022-11-12T02:15:55.207Z,26.2
2022-11-12T02:16:57.398Z,26
2022-11-12T02:17:59.598Z,26.1
2022-11-12T02:19:01.537Z,26.3
2022-11-12T02:20:03.752Z,26.3
2022-11-12T02:21:06.225Z,26.3
2022-11-12T02:22:08.436Z,26.2
2022-11-12T02:23:10.639Z,26
2022-11-12T02:24:12.840Z,26.3
2022-11-12T02:25:15.039Z,26.2
2022-11-12T02:26:17.967Z,26.2
2022-11-12T02:27:19.864Z,26.2
2022-11-12T02:28:22.127Z,26.3
2022-11-12T02:29:25.779Z,26.3
2022-11-12T02:30:28.129Z,26.3
2022-11-12T02:31:30.589Z,26.1
2022-11-12T02:32:32.232Z,26.3
2022-11-12T02:33:34.849Z,26.4
2022-11-12T02:34:36.495Z,26.2
2022-11-12T02:35:38.973Z,26.3
2022-11-12T02:36:40.902Z,26.2
2022-11-12T02:37:42.804Z,26.2
2022-11-12T02:38:44.731Z,26.2
2022-11-12T02:39:47.089Z,26.4
2022-11-12T02:40:49.348Z,26.2
2022-11-12T02:41:52.281Z,26.2
2022-11-12T02:42:54.346Z,26.2
2022-11-12T02:43:56.251Z,26.1
2022-11-12T02:44:58.723Z,26.3
2022-11-12T02:46:00.775Z,26.3
2022-11-12T02:47:03.246Z,26.1
2022-11-12T02:48:05.174Z,26.2
2022-11-12T02:49:07.642Z,26.2
2022-11-12T02:50:09.833Z,26.1
2022-11-12T02:51:12.308Z,26.4
2022-11-12T02:52:14.541Z,26.2
2022-11-12T02:53:16.452Z,26.3
2022-11-12T02:54:18.386Z,26.3
2022-11-12T02:55:20.568Z,26.5
2022-11-12T02:56:22.762Z,26.4
2022-11-12T02:57:25.691Z,26.4
2022-11-12T02:58:27.905Z,26.3
2022-11-12T02:59:30.594Z,26.3
2022-11-12T03:00:32.528Z,26.4
2022-11-12T03:01:34.828Z,26.2
2022-11-12T03:02:36.738Z,26.1
2022-11-12T03:03:38.929Z,26.2
2022-11-12T03:04:44.304Z,26.3
2022-11-12T03:05:46.401Z,26.1
2022-11-12T03:06:48.920Z,26.3
2022-11-12T03:07:51.350Z,26.1
2022-11-12T03:08:53.553Z,26.2
2022-11-12T03:09:56.026Z,26.2
2022-11-12T03:10:58.203Z,26.3
2022-11-12T03:12:00.688Z,26.3
2022-11-12T03:13:03.335Z,26.2
2022-11-12T03:14:05.518Z,26.3
2022-11-12T03:15:07.709Z,26.3
2022-11-12T03:16:10.199Z,26.3
2022-11-12T03:17:12.224Z,26.3
2022-11-12T03:18:14.409Z,26.3
2022-11-12T03:19:16.600Z,26.5
2022-11-12T03:20:18.788Z,26.1
2022-11-12T03:21:21.271Z,26.4
2022-11-12T03:22:23.475Z,26.3
2022-11-12T03:23:25.943Z,26.5
2022-11-12T03:24:28.418Z,26.3
2022-11-12T03:25:30.892Z,26.6
2022-11-12T03:26:35.888Z,26.4
2022-11-12T03:27:38.377Z,26.2
2022-11-12T03:28:41.317Z,26.4
2022-11-12T03:29:43.523Z,26.2
2022-11-12T03:30:45.726Z,26.3
2022-11-12T03:31:48.197Z,26.5
2022-11-12T03:32:50.776Z,26.3
2022-11-12T03:33:53.245Z,26.3
2022-11-12T03:34:55.881Z,26.4
2022-11-12T03:35:58.085Z,26.5
2022-11-12T03:36:59.751Z,26.4
2022-11-12T03:38:01.942Z,26.5
2022-11-12T03:39:04.418Z,26.3
2022-11-12T03:40:06.617Z,26.3
2022-11-12T03:41:09.080Z,26.2
2022-11-12T03:42:11.549Z,26.2
2022-11-12T03:43:13.460Z,26.4
2022-11-12T03:44:16.123Z,26.2
2022-11-12T03:45:18.585Z,26.3
2022-11-12T03:46:20.796Z,26.3
2022-11-12T03:47:23.260Z,26.5
2022-11-12T03:48:26.116Z,26.4
2022-11-12T03:49:30.201Z,26.3
2022-11-12T03:50:32.690Z,26.4
2022-11-12T03:51:34.603Z,26.5
2022-11-12T03:52:36.803Z,26.5
2022-11-12T03:53:38.700Z,26.4
2022-11-12T03:54:41.168Z,26.4
2022-11-12T03:55:43.344Z,26.3
2022-11-12T03:56:45.538Z,26.4
2022-11-12T03:57:46.908Z,26.3
2022-11-12T03:58:49.397Z,26.3
2022-11-12T03:59:52.338Z,26.4
2022-11-12T04:00:54.580Z,26.3
2022-11-12T04:01:57.266Z,26.2
2022-11-12T04:02:59.747Z,26.3
2022-11-12T04:04:02.065Z,26.4
2022-11-12T04:05:04.548Z,26.4
2022-11-12T04:06:07.013Z,26.3
2022-11-12T04:07:09.561Z,26.3
2022-11-12T04:08:12.075Z,26.2
2022-11-12T04:09:14.955Z,26.3
2022-11-12T04:10:16.865Z,26.1
2022-11-12T04:11:19.342Z,26.4
2022-11-12T04:12:20.973Z,26.2
2022-11-12T04:13:23.456Z,26
2022-11-12T04:14:25.640Z,26.2
2022-11-12T04:15:28.557Z,26.1
2022-11-12T04:16:30.204Z,26
2022-11-12T04:17:32.405Z,25.9
2022-11-12T04:18:34.910Z,26.1
2022-11-12T04:19:37.502Z,26
2022-11-12T04:20:39.970Z,26
2022-11-12T04:21:42.169Z,26
2022-11-12T04:22:44.368Z,25.9
2022-11-12T04:23:46.564Z,26.1
2022-11-12T04:24:49.046Z,25.9
2022-11-12T04:25:51.239Z,25.8
2022-11-12T04:26:53.717Z,25.8
2022-11-12T04:27:56.186Z,26
2022-11-12T04:28:58.372Z,25.9
2022-11-12T04:30:00.844Z,26
2022-11-12T04:31:03.803Z,25.8
2022-11-12T04:32:06.266Z,26
2022-11-12T04:33:08.463Z,25.9
2022-11-12T04:34:10.961Z,25.9
2022-11-12T04:35:13.600Z,25.8
2022-11-12T04:36:15.899Z,25.7
2022-11-12T04:37:22.432Z,25.9
2022-11-12T04:38:22.842Z,25.8
2022-11-12T04:39:27.040Z,25.9
2022-11-12T04:40:29.246Z,25.8
2022-11-12T04:41:31.162Z,25.5
2022-11-12T04:42:33.642Z,25.9
2022-11-12T04:43:36.109Z,25.8
2022-11-12T04:44:38.318Z,25.7
2022-11-12T04:45:40.784Z,25.8
2022-11-12T04:46:43.449Z,25.8
2022-11-12T04:47:45.381Z,25.8
2022-11-12T04:48:47.575Z,25.8
2022-11-12T04:49:50.044Z,25.7
2022-11-12T04:50:52.361Z,25.8
2022-11-12T04:51:54.823Z,25.6
2022-11-12T04:52:57.039Z,25.6
2022-11-12T04:53:59.525Z,25.6
2022-11-12T04:55:01.435Z,25.7
2022-11-12T04:56:03.904Z,25.7
2022-11-12T04:57:06.108Z,25.8
2022-11-12T04:58:08.305Z,25.7
2022-11-12T04:59:10.211Z,25.7
2022-11-12T05:00:12.124Z,25.7
2022-11-12T05:01:14.393Z,25.6
2022-11-12T05:02:17.983Z,25.6
2022-11-12T05:03:20.469Z,25.6
2022-11-12T05:04:22.932Z,25.6
2022-11-12T05:05:28.506Z,25.6
2022-11-12T05:06:30.519Z,25.6
2022-11-12T05:07:32.687Z,25.7
2022-11-12T05:08:34.900Z,25.7
2022-11-12T05:09:37.362Z,25.5
2022-11-12T05:10:39.562Z,25.6
2022-11-12T05:11:41.752Z,25.7
2022-11-12T05:12:43.957Z,25.6
2022-11-12T05:13:46.151Z,25.7
2022-11-12T05:14:48.616Z,25.7
2022-11-12T05:15:50.817Z,25.6
2022-11-12T05:16:53.329Z,25.6
2022-11-12T05:17:56.266Z,25.5
2022-11-12T05:18:58.730Z,25.5
2022-11-12T05:20:01.209Z,25.7
2022-11-12T05:21:03.130Z,25.6
2022-11-12T05:22:05.751Z,25.7
2022-11-12T05:23:11.928Z,25.7
2022-11-12T05:24:33.905Z,25.6
2022-11-12T05:25:19.385Z,25.5
2022-11-12T05:26:21.297Z,25.6
2022-11-12T05:27:23.490Z,25.6
2022-11-12T05:28:25.797Z,25.5
2022-11-12T05:29:29.658Z,25.5
2022-11-12T05:30:32.119Z,25.6
2022-11-12T05:31:34.021Z,25.6
2022-11-12T05:32:36.217Z,25.7
2022-11-12T05:33:39.159Z,25.6
2022-11-12T05:34:41.350Z,25.5
2022-11-12T05:35:43.527Z,25.5
2022-11-12T05:36:45.990Z,25.7
2022-11-12T05:37:48.601Z,25.6
2022-11-12T05:38:50.514Z,25.5
2022-11-12T05:39:52.441Z,25.6
2022-11-12T05:40:54.668Z,25.5
2022-11-12T05:42:13.232Z,25.6
2022-11-12T05:43:01.846Z,25.6
2022-11-12T05:44:03.476Z,25.6
2022-11-12T05:45:05.948Z,25.5
2022-11-12T05:46:08.425Z,25.6
2022-11-12T05:47:10.062Z,25.3
2022-11-12T05:48:12.536Z,25.6
2022-11-12T05:49:19.815Z,25.5
2022-11-12T05:50:21.991Z,25.5
2022-11-12T05:51:24.191Z,25.6
2022-11-12T05:52:26.104Z,25.3
2022-11-12T05:53:28.696Z,25.4
2022-11-12T05:54:30.886Z,25.6
2022-11-12T05:55:36.973Z,25.5
2022-11-12T05:56:38.373Z,25.5
2022-11-12T05:57:40.596Z,25.3
2022-11-12T05:58:42.783Z,25.4
2022-11-12T05:59:45.262Z,25.5
2022-11-12T06:00:47.731Z,25.6
2022-11-12T06:01:49.927Z,25.4
2022-11-12T06:02:52.132Z,25.3
2022-11-12T06:03:54.332Z,25.5
2022-11-12T06:04:57.278Z,25.4
2022-11-12T06:06:00.307Z,25.4
2022-11-12T06:07:02.363Z,25.5
2022-11-12T06:08:04.980Z,25.5
2022-11-12T06:09:07.308Z,25.5
2022-11-12T06:10:09.548Z,25.4
2022-11-12T06:11:17.994Z,25.5
2022-11-12T06:12:19.339Z,25.5
2022-11-12T06:13:21.534Z,25.6
2022-11-12T06:14:23.710Z,25.4
2022-11-12T06:15:25.654Z,25.5
2022-11-12T06:16:27.853Z,25.4
2022-11-12T06:17:30.045Z,25.5
2022-11-12T06:18:32.518Z,25.4
2022-11-12T06:19:34.694Z,25.4
2022-11-12T06:20:37.637Z,25.4
2022-11-12T06:21:39.837Z,25.4
2022-11-12T06:22:43.337Z,25.3
2022-11-12T06:23:45.532Z,25.5
2022-11-12T06:24:48.139Z,25.4
2022-11-12T06:25:50.040Z,25.5
2022-11-12T06:26:51.942Z,25.5
2022-11-12T06:27:54.152Z,25.4
2022-11-12T06:28:56.616Z,25.6
2022-11-12T06:29:58.526Z,25.3
2022-11-12T06:31:00.714Z,25.5
2022-11-12T06:32:03.194Z,25.5
2022-11-12T06:33:05.373Z,25.3
2022-11-12T06:34:07.579Z,25.3
2022-11-12T06:35:09.754Z,25.4
2022-11-12T06:36:12.683Z,25.5
2022-11-12T06:37:14.626Z,25.5
2022-11-12T06:38:17.104Z,25.2
2022-11-12T06:39:19.299Z,25.4
2022-11-12T06:40:21.329Z,25.4
2022-11-12T06:41:23.793Z,25.5
2022-11-12T06:42:26.065Z,25.4
2022-11-12T06:43:27.960Z,25.5
2022-11-12T06:44:30.440Z,25.5
2022-11-12T06:45:32.906Z,25.4
2022-11-12T06:46:35.107Z,25.4
2022-11-12T06:47:37.574Z,25.4
2022-11-12T06:48:40.048Z,25.5
2022-11-12T06:49:41.956Z,25.4
2022-11-12T06:50:44.158Z,25.3
2022-11-12T06:51:47.079Z,25.4
2022-11-12T06:52:49.299Z,25.5
2022-11-12T06:53:51.489Z,25.3
2022-11-12T06:54:53.710Z,25.4
2022-11-12T06:55:56.026Z,25.4
2022-11-12T06:56:57.964Z,25.4
2022-11-12T06:58:00.160Z,25.2
2022-11-12T06:59:02.360Z,25.5
2022-11-12T07:00:04.594Z,25.5
2022-11-12T07:01:11.403Z,25.4
2022-11-12T07:02:12.109Z,25.4
2022-11-12T07:03:14.036Z,25.2
2022-11-12T07:04:16.175Z,25.3
2022-11-12T07:05:18.077Z,25.4
2022-11-12T07:06:20.635Z,25.4
2022-11-12T07:07:23.613Z,25.3
2022-11-12T07:08:26.348Z,25.4
2022-11-12T07:09:30.944Z,25.4
2022-11-12T07:10:33.119Z,25.5
2022-11-12T07:11:35.714Z,25.5
2022-11-12T07:12:38.189Z,25.5
2022-11-12T07:13:40.836Z,25.4
2022-11-12T07:14:43.322Z,25.2
2022-11-12T07:15:45.787Z,25.3
2022-11-12T07:16:47.713Z,25.4
2022-11-12T07:17:49.912Z,25.3
2022-11-12T07:18:52.119Z,25.3
2022-11-12T07:19:57.171Z,25.4
2022-11-12T07:20:59.600Z,25.4
2022-11-12T07:22:01.869Z,25.3
2022-11-12T07:23:04.809Z,25.4
2022-11-12T07:24:06.744Z,25.2
2022-11-12T07:25:08.959Z,25.4
2022-11-12T07:26:11.163Z,25.3
2022-11-12T07:27:13.768Z,25.3
2022-11-12T07:28:16.240Z,25.3
2022-11-12T07:29:30.398Z,25.4
2022-11-12T07:30:23.414Z,25.2
2022-11-12T07:31:25.921Z,25.3
2022-11-12T07:32:28.119Z,25.3
2022-11-12T07:33:29.747Z,25.2
2022-11-12T07:34:32.243Z,25.3
2022-11-12T07:35:34.724Z,25.3
2022-11-12T07:36:36.940Z,25.4
2022-11-12T07:37:39.152Z,25.4
2022-11-12T07:38:42.080Z,25.2
2022-11-12T07:39:44.261Z,25.4
2022-11-12T07:40:46.469Z,25.2
2022-11-12T07:41:48.945Z,25.3
2022-11-12T07:42:51.255Z,25.3
2022-11-12T07:43:53.457Z,25.2
2022-11-12T07:44:55.677Z,25.3
2022-11-12T07:45:58.154Z,25.4
2022-11-12T07:47:00.643Z,25.3
2022-11-12T07:48:02.839Z,25.3
2022-11-12T07:49:04.809Z,25.3
2022-11-12T07:50:06.719Z,25.3
2022-11-12T07:51:08.916Z,25.1
2022-11-12T07:52:10.818Z,25.2
2022-11-12T07:53:13.007Z,25.3
2022-11-12T07:54:15.933Z,25.2
2022-11-12T07:55:18.417Z,25.4
2022-11-12T07:56:20.610Z,25.3
2022-11-12T07:57:23.105Z,25.2
2022-11-12T07:58:25.839Z,25.3
2022-11-12T07:59:29.999Z,25
2022-11-12T08:00:32.473Z,25.3
2022-11-12T08:01:34.754Z,25.1
2022-11-12T08:02:37.357Z,25.3
2022-11-12T08:03:39.552Z,25.2
2022-11-12T08:04:41.811Z,25.5
2022-11-12T08:05:44.031Z,25.3
2022-11-12T08:06:46.090Z,25.2
2022-11-12T08:07:49.430Z,25.2
2022-11-12T08:08:51.775Z,25.2
2022-11-12T08:09:54.725Z,25.1
2022-11-12T08:10:56.666Z,25.3
2022-11-12T08:11:58.349Z,25.1
2022-11-12T08:13:00.552Z,25.4
2022-11-12T08:14:02.848Z,25.1
2022-11-12T08:15:04.479Z,25.3
2022-11-12T08:16:06.953Z,25.3
2022-11-12T08:17:09.147Z,25.2
2022-11-12T08:18:11.622Z,25.1
2022-11-12T08:19:14.089Z,25.3
2022-11-12T08:20:16.856Z,25.3
2022-11-12T08:21:19.322Z,25.2
2022-11-12T08:22:21.528Z,25.2
2022-11-12T08:23:23.721Z,25.1
2022-11-12T08:24:25.930Z,25.1
2022-11-12T08:25:28.890Z,25.1
2022-11-12T08:26:31.090Z,25.1
2022-11-12T08:27:33.615Z,25.2
2022-11-12T08:28:35.533Z,25.3
2022-11-12T08:29:37.860Z,24.9
2022-11-12T08:30:39.788Z,25.3
2022-11-12T08:31:42.264Z,25.3
2022-11-12T08:32:44.474Z,25.1
2022-11-12T08:33:47.430Z,25.2
2022-11-12T08:34:49.626Z,25.2
2022-11-12T08:35:51.822Z,25.1
2022-11-12T08:36:54.033Z,25.2
2022-11-12T08:37:56.236Z,25.2
2022-11-12T08:38:58.419Z,25.2
2022-11-12T08:40:00.849Z,25.2
2022-11-12T08:41:03.775Z,25.1
2022-11-12T08:42:06.246Z,25.2
2022-11-12T08:43:07.872Z,25.3
2022-11-12T08:44:10.348Z,25.2
2022-11-12T08:45:12.938Z,25.4
2022-11-12T08:46:15.142Z,25.2
2022-11-12T08:47:17.337Z,25.3
2022-11-12T08:48:18.988Z,25.3
2022-11-12T08:49:21.185Z,25.4
2022-11-12T08:50:23.670Z,25.2
2022-11-12T08:51:26.022Z,25.2
2022-11-12T08:52:28.520Z,25.4
2022-11-12T08:53:30.766Z,25.1
2022-11-12T08:54:33.283Z,25.4
2022-11-12T08:55:35.468Z,25.3
2022-11-12T08:56:38.466Z,25.2
2022-11-12T08:57:40.396Z,25.1
2022-11-12T08:58:42.366Z,25.4
2022-11-12T08:59:44.873Z,25.4
2022-11-12T09:00:46.927Z,25.1
2022-11-12T09:01:49.262Z,25.2
2022-11-12T09:02:52.113Z,25.4
2022-11-12T09:03:54.317Z,25.3
2022-11-12T09:04:56.520Z,25.2
2022-11-12T09:05:58.721Z,25.4
2022-11-12T09:07:01.246Z,25.3
2022-11-12T09:08:03.787Z,25.3
2022-11-12T09:09:06.440Z,25.2
2022-11-12T09:10:08.360Z,25.2
2022-11-12T09:11:10.575Z,25.2
2022-11-12T09:12:18.169Z,25.2
2022-11-12T09:13:18.491Z,25.2
2022-11-12T09:14:20.979Z,25.2
2022-11-12T09:15:36.702Z,25.2
2022-11-12T09:16:28.267Z,25.4
2022-11-12T09:17:30.170Z,25.2
2022-11-12T09:18:32.642Z,25.2
2022-11-12T09:19:37.520Z,25.4
2022-11-12T09:20:40.105Z,25.2
2022-11-12T09:21:42.582Z,25.3
2022-11-12T09:22:44.762Z,25.4
2022-11-12T09:23:47.227Z,25.3
2022-11-12T09:24:49.153Z,25.3
2022-11-12T09:25:51.358Z,25.1
2022-11-12T09:26:53.834Z,25.3
2022-11-12T09:27:56.811Z,25.3
2022-11-12T09:28:59.298Z,25.3
2022-11-12T09:30:01.245Z,25.1
2022-11-12T09:31:03.446Z,25.3
2022-11-12T09:32:05.770Z,25.2
2022-11-12T09:33:07.982Z,25.2
2022-11-12T09:34:10.471Z,25.2
2022-11-12T09:35:12.950Z,25.3
2022-11-12T09:36:14.859Z,25.3
2022-11-12T09:37:17.387Z,25.2
2022-11-12T09:38:19.576Z,25.5
2022-11-12T09:39:21.773Z,25.2
2022-11-12T09:40:23.435Z,25.3
2022-11-12T09:41:25.361Z,25.1
2022-11-12T09:42:27.556Z,25.3
2022-11-12T09:43:30.508Z,25.5
2022-11-12T09:44:36.601Z,25.2
2022-11-12T09:45:37.687Z,25.4
2022-11-12T09:46:40.154Z,25.3
2022-11-12T09:47:42.769Z,25.2
2022-11-12T09:48:44.696Z,25.2
2022-11-12T09:49:46.880Z,25.2
2022-11-12T09:50:49.099Z,25.3
2022-11-12T09:51:51.309Z,25.3
2022-11-12T09:52:53.510Z,25.4
2022-11-12T09:53:55.986Z,25.2
2022-11-12T09:54:58.470Z,25.3
2022-11-12T09:56:00.376Z,25.1
2022-11-12T09:57:02.585Z,25.2
2022-11-12T09:58:04.797Z,25.3
2022-11-12T09:59:07.729Z,25.2
2022-11-12T10:00:10.217Z,25.2
2022-11-12T10:01:11.900Z,25.2
2022-11-12T10:02:14.375Z,25.3
2022-11-12T10:03:16.693Z,25.3
2022-11-12T10:04:18.893Z,25.1
2022-11-12T10:05:21.098Z,25.3
2022-11-12T10:06:23.289Z,25.2
2022-11-12T10:07:26.098Z,25.2
2022-11-12T10:08:28.063Z,25.4
2022-11-12T10:09:31.373Z,25.2
2022-11-12T10:10:33.278Z,25.3
2022-11-12T10:11:35.457Z,25.3
2022-11-12T10:12:37.686Z,25.2
2022-11-12T10:13:39.879Z,25.1
2022-11-12T10:14:42.558Z,25.1
2022-11-12T10:15:44.762Z,25.1
2022-11-12T10:16:46.970Z,25.3
2022-11-12T10:17:49.441Z,25.2
2022-11-12T10:18:52.033Z,25.2
2022-11-12T10:19:54.225Z,25.3
2022-11-12T10:20:56.447Z,25.2
2022-11-12T10:21:59.064Z,25.1
2022-11-12T10:23:01.004Z,25.3
2022-11-12T10:24:03.482Z,25.3
2022-11-12T10:25:05.713Z,25.3
2022-11-12T10:26:07.956Z,25.2
2022-11-12T10:27:10.443Z,25.3
2022-11-12T10:28:12.629Z,25.2
2022-11-12T10:29:14.821Z,25.1
2022-11-12T10:30:17.766Z,25.2
2022-11-12T10:31:20.238Z,25.1
2022-11-12T10:32:22.422Z,25.3
2022-11-12T10:33:24.907Z,25.2
2022-11-12T10:34:27.606Z,25.1
2022-11-12T10:35:30.097Z,25.1
2022-11-12T10:36:32.571Z,25.4
2022-11-12T10:37:35.050Z,25
2022-11-12T10:38:37.528Z,25.1
2022-11-12T10:39:40.001Z,25.1
2022-11-12T10:40:42.510Z,25.2
2022-11-12T10:41:44.718Z,25.1
2022-11-12T10:42:46.920Z,25.3
2022-11-12T10:43:49.406Z,25.2
2022-11-12T10:44:51.605Z,25.2
2022-11-12T10:45:54.277Z,25.2
2022-11-12T10:46:56.755Z,25.3
2022-11-12T10:47:58.941Z,25.2
2022-11-12T10:49:01.140Z,25.3
2022-11-12T10:50:02.926Z,25.1
2022-11-12T10:51:05.124Z,25.1
2022-11-12T10:52:07.701Z,25.1
2022-11-12T10:53:10.204Z,25.2
2022-11-12T10:54:12.399Z,25.2
2022-11-12T10:55:14.809Z,25.3
2022-11-12T10:56:17.287Z,25.2
2022-11-12T10:57:19.182Z,25.2
2022-11-12T10:58:21.110Z,25.2
2022-11-12T10:59:23.029Z,25.2
2022-11-12T11:00:25.241Z,25.1
2022-11-12T11:01:32.172Z,25.2
2022-11-12T11:02:33.159Z,25.1
2022-11-12T11:03:35.078Z,25.2
2022-11-12T11:04:37.278Z,25.2
2022-11-12T11:05:39.599Z,25.1
2022-11-12T11:06:42.126Z,25.3
2022-11-12T11:07:44.372Z,25.2
2022-11-12T11:08:46.292Z,25.1
2022-11-12T11:09:47.951Z,25.1
2022-11-12T11:10:50.423Z,25
2022-11-12T11:11:52.641Z,25.2
2022-11-12T11:12:55.138Z,25.2
2022-11-12T11:13:57.624Z,25.1
2022-11-12T11:14:59.814Z,25.1
2022-11-12T11:16:02.284Z,25.1
2022-11-12T11:17:05.229Z,25.2
2022-11-12T11:18:07.701Z,25
2022-11-12T11:19:09.336Z,25.4
2022-11-12T11:20:11.903Z,25.3
2022-11-12T11:21:14.228Z,25
2022-11-12T11:22:17.397Z,25.3
2022-11-12T11:23:19.593Z,25.2
2022-11-12T11:24:22.059Z,25.1
2022-11-12T11:25:24.271Z,25.2
2022-11-12T11:26:27.321Z,25.1
2022-11-12T11:27:29.519Z,25.2
2022-11-12T11:28:31.162Z,25
2022-11-12T11:29:33.633Z,25
2022-11-12T11:30:35.650Z,25.3
2022-11-12T11:31:38.125Z,25.1
2022-11-12T11:32:41.049Z,25.1
2022-11-12T11:33:43.526Z,25.1
2022-11-12T11:34:45.746Z,25.3
2022-11-12T11:35:47.698Z,25.2
2022-11-12T11:36:50.009Z,25.3
2022-11-12T11:37:55.789Z,25
2022-11-12T11:38:57.187Z,25.1
2022-11-12T11:39:59.675Z,25.1
2022-11-12T11:41:01.638Z,25.1
2022-11-12T11:42:04.122Z,25.2
2022-11-12T11:43:06.325Z,25.2
2022-11-12T11:44:13.696Z,25.1
2022-11-12T11:45:13.838Z,25.2
2022-11-12T11:46:16.043Z,25.1
2022-11-12T11:47:18.245Z,25.2
2022-11-12T11:48:21.178Z,25.3
2022-11-12T11:49:23.110Z,25.2
2022-11-12T11:50:24.842Z,25.2
2022-11-12T11:51:27.317Z,25.3
2022-11-12T11:52:29.658Z,25.2
2022-11-12T11:53:31.850Z,25.2
2022-11-12T11:54:34.059Z,25.2
2022-11-12T11:55:36.257Z,25.2
2022-11-12T11:56:38.444Z,25.2
2022-11-12T11:57:40.391Z,25.2
2022-11-12T11:58:42.878Z,25.3
2022-11-12T11:59:45.403Z,25.3
2022-11-12T12:00:47.310Z,25.1
2022-11-12T12:01:49.246Z,25.1
2022-11-12T12:02:51.721Z,25.2
2022-11-12T12:03:54.672Z,25.1
2022-11-12T12:04:57.129Z,25.2
2022-11-12T12:05:59.617Z,25.2
2022-11-12T12:07:02.145Z,25
2022-11-12T12:08:04.769Z,25
2022-11-12T12:09:07.232Z,25.2
2022-11-12T12:10:09.741Z,24.9
2022-11-12T12:11:12.233Z,25.1
2022-11-12T12:12:14.728Z,25.2
2022-11-12T12:13:16.930Z,25
2022-11-12T12:14:19.410Z,25
2022-11-12T12:15:21.608Z,25.3
2022-11-12T12:16:24.098Z,25.2
2022-11-12T12:17:30.751Z,25.1
2022-11-12T12:18:31.284Z,25.1
2022-11-12T12:19:34.248Z,25.1
2022-11-12T12:20:36.455Z,25.2
2022-11-12T12:21:38.629Z,25
2022-11-12T12:22:41.099Z,25.3
2022-11-12T12:23:43.681Z,25.2
2022-11-12T12:24:45.864Z,25.2
2022-11-12T12:25:48.084Z,25.1
2022-11-12T12:26:50.293Z,25.3
2022-11-12T12:27:52.766Z,25.2
2022-11-12T12:28:54.698Z,25.1
2022-11-12T12:29:56.620Z,25.2
2022-11-12T12:30:58.817Z,25.2
2022-11-12T12:32:00.736Z,25.2
2022-11-12T12:33:03.206Z,25.2
2022-11-12T12:34:05.682Z,25.1
2022-11-12T12:35:08.640Z,25.2
2022-11-12T12:36:10.837Z,25.1
2022-11-12T12:37:13.056Z,25.2
2022-11-12T12:38:15.519Z,25.3
2022-11-12T12:39:18.141Z,25.1
2022-11-12T12:40:20.046Z,25.2
2022-11-12T12:41:22.540Z,25.3
2022-11-12T12:42:25.028Z,25
2022-11-12T12:43:27.231Z,25.2
2022-11-12T12:44:29.702Z,25.2
2022-11-12T12:45:35.683Z,25.1
2022-11-12T12:46:36.897Z,25.3
2022-11-12T12:47:39.101Z,25
2022-11-12T12:48:41.285Z,25.1
2022-11-12T12:49:43.490Z,25.2
2022-11-12T12:50:46.434Z,25.3
2022-11-12T12:51:51.563Z,25.1
2022-11-12T12:52:53.326Z,25.2
2022-11-12T12:53:55.799Z,25.1
2022-11-12T12:54:58.400Z,25
2022-11-12T12:56:00.880Z,25.2
2022-11-12T12:57:03.225Z,25.1
2022-11-12T12:58:05.411Z,25.2
2022-11-12T12:59:07.884Z,25.3
2022-11-12T13:00:15.289Z,25.1
2022-11-12T13:01:15.388Z,25.2
2022-11-12T13:02:18.268Z,25.2
2022-11-12T13:03:20.753Z,25
2022-11-12T13:04:23.240Z,25.2
2022-11-12T13:05:25.439Z,25.2
2022-11-12T13:06:28.387Z,25.4
2022-11-12T13:07:30.335Z,25.1
2022-11-12T13:08:32.740Z,25.1
2022-11-12T13:09:35.229Z,25.3
2022-11-12T13:10:37.575Z,25.2
2022-11-12T13:11:40.132Z,25.1
2022-11-12T13:12:42.653Z,25.2
2022-11-12T13:13:44.300Z,25
2022-11-12T13:14:46.216Z,25.3
2022-11-12T13:15:48.547Z,25.1
2022-11-12T13:16:51.047Z,25.2
2022-11-12T13:17:53.041Z,25.1
2022-11-12T13:18:55.259Z,25.3
2022-11-12T13:19:57.746Z,25.2
2022-11-12T13:20:59.684Z,25
2022-11-12T13:22:02.752Z,25.1
2022-11-12T13:23:05.244Z,25.3
2022-11-12T13:24:07.707Z,25.1
2022-11-12T13:25:10.738Z,25.5
2022-11-12T13:26:13.064Z,25.3
2022-11-12T13:27:15.271Z,25.1
2022-11-12T13:28:17.746Z,25
2022-11-12T13:29:19.922Z,25.2
2022-11-12T13:30:22.135Z,25.3
2022-11-12T13:31:24.628Z,25.1
2022-11-12T13:32:26.808Z,25.2
2022-11-12T13:33:29.011Z,25.2
2022-11-12T13:34:30.934Z,25.2
2022-11-12T13:35:33.140Z,25.2
2022-11-12T13:36:35.180Z,25
2022-11-12T13:37:37.842Z,25.2
2022-11-12T13:38:40.338Z,25.1
2022-11-12T13:39:41.691Z,25.1
2022-11-12T13:40:44.186Z,25.1
2022-11-12T13:41:46.793Z,25.1
2022-11-12T13:42:49.267Z,25.3
2022-11-12T13:43:51.188Z,25
2022-11-12T13:44:56.051Z,25.2
2022-11-12T13:45:58.372Z,25.1
2022-11-12T13:47:00.920Z,25.3
2022-11-12T13:48:03.399Z,25.1
2022-11-12T13:49:05.874Z,25.3
2022-11-12T13:50:07.800Z,25.1
2022-11-12T13:51:10.009Z,25
2022-11-12T13:52:12.490Z,25.3
2022-11-12T13:53:15.429Z,25
2022-11-12T13:54:17.905Z,25.1